createdAt,value
2019-03-22T00:00:31.401Z,99.90
2019-03-22T00:03:01.470Z,99.90
2019-03-22T00:05:31.563Z,99.90
2019-03-22T00:08:01.685Z,99.90
2019-03-22T00:10:31.769Z,99.90
2019-03-22T00:13:01.802Z,99.90
2019-03-22T00:15:31.904Z,99.90
2019-03-22T00:18:02.835Z,99.90
2019-03-22T00:20:33.149Z,99.90
2019-03-22T00:23:03.199Z,99.90
2019-03-22T00:25:33.277Z,99.90
2019-03-22T00:28:03.364Z,99.90
2019-03-22T00:30:33.616Z,99.90
2019-03-22T00:33:03.627Z,99.90
2019-03-22T00:35:33.809Z,99.90
2019-03-22T00:38:03.886Z,99.90
2019-03-22T00:40:33.944Z,99.90
2019-03-22T00:43:03.979Z,99.90
2019-03-22T00:45:34.108Z,99.90
2019-03-22T00:48:04.205Z,99.90
2019-03-22T00:50:34.276Z,99.90
2019-03-22T00:53:04.784Z,99.90
2019-03-22T00:55:35.039Z,99.90
2019-03-22T00:58:05.179Z,99.90
2019-03-22T01:00:35.566Z,99.90
2019-03-22T01:03:05.929Z,99.90
2019-03-22T01:05:36.088Z,99.90
2019-03-22T01:08:06.461Z,99.90
2019-03-22T01:10:36.562Z,99.90
2019-03-22T01:13:09.294Z,99.90
2019-03-22T01:15:42.470Z,99.90
2019-03-22T01:18:12.660Z,99.90
2019-03-22T01:20:43.008Z,99.90
2019-03-22T01:23:13.696Z,99.90
2019-03-22T01:25:43.768Z,99.90
2019-03-22T01:28:13.979Z,99.90
2019-03-22T01:30:44.292Z,99.90
2019-03-22T01:33:14.492Z,99.90
2019-03-22T01:35:44.811Z,99.90
2019-03-22T01:38:15.012Z,99.90
2019-03-22T01:40:45.051Z,99.90
2019-03-22T01:43:15.330Z,99.90
2019-03-22T01:45:46.048Z,99.90
2019-03-22T01:48:16.213Z,99.90
2019-03-22T01:50:46.407Z,99.90
2019-03-22T01:53:16.891Z,99.90
2019-03-22T01:55:47.051Z,99.90
2019-03-22T01:58:17.249Z,99.90
2019-03-22T02:00:47.508Z,99.90
2019-03-22T02:03:17.687Z,99.90
2019-03-22T02:05:47.780Z,99.90
2019-03-22T02:08:18.050Z,99.90
2019-03-22T02:10:48.421Z,99.90
2019-03-22T02:13:20.743Z,99.90
2019-03-22T02:15:50.594Z,99.90
2019-03-22T02:18:20.676Z,99.90
2019-03-22T02:20:51.133Z,99.90
2019-03-22T02:23:21.209Z,99.90
2019-03-22T02:25:51.253Z,99.90
2019-03-22T02:28:21.320Z,99.90
2019-03-22T02:30:51.604Z,99.90
2019-03-22T02:33:22.073Z,99.90
2019-03-22T02:35:52.349Z,99.90
2019-03-22T02:38:22.514Z,99.90
2019-03-22T02:40:52.545Z,99.90
2019-03-22T02:43:26.557Z,99.90
2019-03-22T02:45:56.602Z,99.90
2019-03-22T02:48:26.788Z,99.90
2019-03-22T02:50:56.845Z,99.90
2019-03-22T02:53:27.192Z,99.90
2019-03-22T02:55:58.652Z,99.90
2019-03-22T02:58:28.718Z,99.90
2019-03-22T03:00:59.395Z,99.90
2019-03-22T03:03:29.648Z,99.90
2019-03-22T03:06:00.101Z,99.90
2019-03-22T03:08:30.429Z,99.90
2019-03-22T03:11:00.553Z,99.90
2019-03-22T03:13:31.006Z,99.90
2019-03-22T03:16:01.106Z,99.90
2019-03-22T03:18:31.329Z,99.90
2019-03-22T03:21:01.615Z,99.90
2019-03-22T03:23:31.709Z,99.90
2019-03-22T03:26:02.093Z,99.90
2019-03-22T03:28:37.237Z,99.90
2019-03-22T03:31:04.752Z,99.90
2019-03-22T03:33:34.979Z,99.90
2019-03-22T03:36:05.236Z,99.90
2019-03-22T03:38:35.500Z,99.90
2019-03-22T03:41:05.786Z,99.90
2019-03-22T03:43:35.861Z,99.90
2019-03-22T03:46:06.311Z,99.90
2019-03-22T03:48:36.383Z,99.90
2019-03-22T03:51:06.509Z,99.90
2019-03-22T03:53:36.641Z,99.90
2019-03-22T03:56:06.937Z,99.90
2019-03-22T03:58:51.149Z,99.90
2019-03-22T04:01:09.003Z,99.90
2019-03-22T04:03:39.248Z,99.90
2019-03-22T04:06:09.270Z,99.90
2019-03-22T04:08:39.369Z,99.90
2019-03-22T04:11:09.463Z,99.90
2019-03-22T04:13:39.607Z,99.90
2019-03-22T04:16:09.894Z,99.90
2019-03-22T04:18:39.981Z,99.90
2019-03-22T04:21:10.041Z,99.90
2019-03-22T04:23:40.713Z,99.90
2019-03-22T04:26:10.739Z,99.90
2019-03-22T04:28:40.822Z,99.90
2019-03-22T04:31:10.882Z,99.90
2019-03-22T04:33:41.180Z,99.90
2019-03-22T04:36:11.505Z,99.90
2019-03-22T04:38:41.594Z,99.90
2019-03-22T04:41:11.627Z,99.90
2019-03-22T04:43:41.703Z,99.90
2019-03-22T04:46:13.262Z,99.90
2019-03-22T04:48:44.438Z,99.90
2019-03-22T04:51:14.616Z,99.90
2019-03-22T04:53:53.625Z,99.90
2019-03-22T04:56:24.874Z,99.90
2019-03-22T04:58:55.752Z,99.90
2019-03-22T05:01:27.355Z,99.90
2019-03-22T05:04:00.343Z,99.90
2019-03-22T05:06:33.134Z,99.90
2019-03-22T05:09:04.867Z,99.90
2019-03-22T05:11:38.823Z,99.90
2019-03-22T05:14:09.238Z,99.90
2019-03-22T05:16:42.292Z,99.90
2019-03-22T05:19:14.421Z,99.90
2019-03-22T05:21:45.629Z,99.90
2019-03-22T05:24:18.448Z,99.90
2019-03-22T05:26:50.620Z,99.90
2019-03-22T05:29:30.501Z,99.90
2019-03-22T05:32:05.760Z,99.90
2019-03-22T05:34:36.250Z,99.90
2019-03-22T05:37:06.495Z,99.90
2019-03-22T05:39:36.659Z,99.90
2019-03-22T05:42:06.934Z,99.90
2019-03-22T05:44:37.129Z,99.90
2019-03-22T05:47:07.282Z,99.90
2019-03-22T05:49:37.420Z,99.90
2019-03-22T05:52:09.389Z,99.90
2019-03-22T05:54:39.635Z,99.90
2019-03-22T05:57:13.763Z,99.90
2019-03-22T05:59:42.711Z,99.90
2019-03-22T06:02:13.470Z,99.90
2019-03-22T06:04:43.681Z,99.90
2019-03-22T06:07:14.081Z,99.90
2019-03-22T06:09:44.399Z,99.90
2019-03-22T06:12:14.517Z,99.90
2019-03-22T06:14:44.629Z,99.90
2019-03-22T06:17:14.892Z,99.90
2019-03-22T06:19:44.978Z,99.90
2019-03-22T06:22:15.400Z,99.90
2019-03-22T06:24:45.567Z,99.90
2019-03-22T06:27:16.117Z,99.90
2019-03-22T06:29:54.276Z,99.90
2019-03-22T06:32:18.051Z,99.90
2019-03-22T06:34:48.486Z,99.90
2019-03-22T06:37:21.592Z,99.90
2019-03-22T06:39:51.759Z,99.90
2019-03-22T06:42:22.020Z,99.90
2019-03-22T06:44:57.349Z,99.90
2019-03-22T06:47:27.544Z,99.90
2019-03-22T06:49:57.815Z,99.90
2019-03-22T06:52:28.206Z,99.90
2019-03-22T06:54:58.434Z,99.90
2019-03-22T06:57:29.033Z,99.90
2019-03-22T07:00:06.351Z,99.90
2019-03-22T07:02:32.380Z,99.90
2019-03-22T07:05:02.608Z,99.90
2019-03-22T07:07:32.815Z,99.90
2019-03-22T07:10:03.174Z,99.90
2019-03-22T07:12:33.434Z,99.90
2019-03-22T07:15:03.826Z,99.90
2019-03-22T07:17:34.308Z,99.90
2019-03-22T07:20:05.141Z,99.90
2019-03-22T07:22:35.411Z,99.90
2019-03-22T07:25:07.218Z,99.90
2019-03-22T07:27:37.427Z,99.90
2019-03-22T07:30:17.895Z,99.90
2019-03-22T07:32:40.023Z,99.90
2019-03-22T07:35:10.294Z,99.90
2019-03-22T07:37:40.669Z,99.90
2019-03-22T07:40:11.549Z,99.90
2019-03-22T07:42:41.807Z,99.90
2019-03-22T07:45:12.395Z,99.90
2019-03-22T07:47:42.741Z,99.90
2019-03-22T07:50:13.692Z,99.90
2019-03-22T07:52:43.869Z,99.90
2019-03-22T07:55:14.144Z,99.90
2019-03-22T07:57:44.398Z,99.90
2019-03-22T08:00:14.629Z,99.90
2019-03-22T08:02:44.884Z,99.90
2019-03-22T08:05:14.957Z,99.90
2019-03-22T08:07:45.722Z,99.90
2019-03-22T08:10:16.638Z,99.90
2019-03-22T08:12:47.142Z,99.90
2019-03-22T08:15:29.348Z,99.90
2019-03-22T08:18:00.035Z,99.90
2019-03-22T08:20:31.014Z,99.90
2019-03-22T08:23:05.344Z,99.90
2019-03-22T08:25:35.691Z,99.90
2019-03-22T08:28:06.088Z,99.90
2019-03-22T08:30:42.944Z,99.90
2019-03-22T08:33:08.067Z,99.90
2019-03-22T08:35:38.242Z,99.90
2019-03-22T08:38:08.467Z,99.90
2019-03-22T08:40:41.681Z,99.90
2019-03-22T08:43:11.961Z,99.90
2019-03-22T08:45:42.235Z,99.90
2019-03-22T08:48:12.353Z,99.90
2019-03-22T08:50:42.707Z,99.90
2019-03-22T08:53:12.854Z,99.90
2019-03-22T08:55:43.078Z,99.90
2019-03-22T08:58:13.418Z,99.90
2019-03-22T09:00:56.663Z,99.90
2019-03-22T09:03:17.829Z,99.90
2019-03-22T09:05:56.769Z,99.90
2019-03-22T09:08:26.469Z,99.90
2019-03-22T09:10:56.672Z,99.90
2019-03-22T09:13:27.134Z,99.90
2019-03-22T09:16:00.531Z,99.90
2019-03-22T09:18:30.711Z,99.90
2019-03-22T09:21:00.923Z,99.90
2019-03-22T09:23:31.269Z,99.90
2019-03-22T09:26:01.608Z,99.90
2019-03-22T09:28:31.893Z,98.80
2019-03-22T09:31:10.179Z,98.30
2019-03-22T09:33:34.147Z,97.90
2019-03-22T09:36:04.321Z,98.30
2019-03-22T09:38:34.571Z,98.00
2019-03-22T09:41:05.457Z,97.90
2019-03-22T09:43:36.344Z,96.90
2019-03-22T09:46:06.880Z,97.20
2019-03-22T09:48:38.269Z,96.00
2019-03-22T09:51:08.555Z,95.60
2019-03-22T09:53:39.115Z,94.90
2019-03-22T09:56:11.370Z,94.20
2019-03-22T09:58:41.753Z,92.50
2019-03-22T10:01:23.650Z,85.80
2019-03-22T10:03:46.921Z,86.10
2019-03-22T10:06:17.290Z,79.50
2019-03-22T10:08:48.652Z,77.00
2019-03-22T10:11:22.853Z,69.20
2019-03-22T10:13:53.137Z,65.50
2019-03-22T10:16:25.007Z,64.80
2019-03-22T10:18:55.916Z,61.10
2019-03-22T10:21:28.297Z,59.80
2019-03-22T10:24:01.245Z,60.50
2019-03-22T10:26:39.506Z,59.70
2019-03-22T10:29:11.413Z,57.20
2019-03-22T10:31:41.984Z,55.90
2019-03-22T10:34:13.073Z,55.30
2019-03-22T10:36:43.802Z,52.60
2019-03-22T10:39:14.364Z,51.30
2019-03-22T10:41:47.265Z,53.10
2019-03-22T10:44:17.807Z,50.70
2019-03-22T10:46:49.617Z,44.70
2019-03-22T10:49:20.140Z,42.40
2019-03-22T10:51:56.840Z,40.20
2019-03-22T10:54:23.156Z,39.70
2019-03-22T10:56:53.632Z,38.50
2019-03-22T10:59:26.700Z,37.50
2019-03-22T11:02:03.214Z,37.10
2019-03-22T11:04:29.035Z,37.30
2019-03-22T11:06:59.341Z,36.70
2019-03-22T11:09:29.700Z,35.50
2019-03-22T11:12:00.078Z,33.50
2019-03-22T11:14:30.300Z,32.60
2019-03-22T11:17:00.714Z,31.50
2019-03-22T11:19:30.911Z,30.70
2019-03-22T11:22:01.126Z,29.60
2019-03-22T11:24:31.339Z,28.30
2019-03-22T11:27:01.556Z,29.20
2019-03-22T11:29:31.741Z,28.50
2019-03-22T11:32:01.976Z,29.40
2019-03-22T11:34:32.179Z,29.30
2019-03-22T11:37:03.380Z,30.00
2019-03-22T11:39:33.676Z,29.80
2019-03-22T11:42:04.142Z,29.60
2019-03-22T11:44:34.348Z,29.40
2019-03-22T11:47:04.748Z,29.10
2019-03-22T11:49:36.933Z,29.00
2019-03-22T11:52:07.471Z,28.70
2019-03-22T11:54:37.706Z,28.70
2019-03-22T11:57:08.101Z,28.80
2019-03-22T11:59:38.481Z,29.00
2019-03-22T12:02:08.718Z,30.00
2019-03-22T12:04:39.079Z,28.90
2019-03-22T12:07:09.298Z,28.10
2019-03-22T12:09:39.585Z,28.10
2019-03-22T12:12:09.837Z,27.60
2019-03-22T12:14:40.522Z,27.30
2019-03-22T12:17:10.915Z,26.90
2019-03-22T12:19:41.271Z,27.40
2019-03-22T12:22:12.794Z,26.90
2019-03-22T12:24:45.618Z,26.80
2019-03-22T12:27:15.817Z,27.10
2019-03-22T12:29:45.982Z,26.60
2019-03-22T12:32:16.411Z,26.50
2019-03-22T12:34:46.815Z,27.00
2019-03-22T12:37:17.024Z,26.40
2019-03-22T12:39:47.553Z,26.50
2019-03-22T12:42:18.650Z,26.40
2019-03-22T12:44:49.076Z,26.10
2019-03-22T12:47:19.558Z,25.90
2019-03-22T12:49:50.569Z,26.30
2019-03-22T12:52:21.267Z,26.10
2019-03-22T12:54:52.060Z,25.90
2019-03-22T12:57:22.744Z,25.80
2019-03-22T12:59:57.539Z,25.70
2019-03-22T13:02:30.158Z,25.80
2019-03-22T13:05:07.762Z,25.30
2019-03-22T13:07:38.832Z,25.50
2019-03-22T13:10:16.379Z,25.50
2019-03-22T13:12:47.204Z,25.70
2019-03-22T13:15:20.162Z,25.60
2019-03-22T13:17:53.980Z,25.90
2019-03-22T13:20:24.359Z,25.20
2019-03-22T13:23:00.386Z,25.60
2019-03-22T13:25:32.299Z,25.60
2019-03-22T13:28:02.895Z,26.00
2019-03-22T13:30:37.244Z,26.00
2019-03-22T13:33:09.517Z,25.90
2019-03-22T13:35:39.942Z,26.10
2019-03-22T13:38:10.371Z,26.00
2019-03-22T13:40:41.031Z,25.70
2019-03-22T13:43:11.554Z,25.40
2019-03-22T13:45:42.165Z,25.50
2019-03-22T13:48:13.557Z,25.60
2019-03-22T13:50:44.551Z,26.10
2019-03-22T13:53:15.106Z,25.80
2019-03-22T13:55:46.576Z,25.50
2019-03-22T13:58:17.190Z,25.40
2019-03-22T14:00:49.609Z,25.20
2019-03-22T14:03:19.871Z,25.10
2019-03-22T14:05:50.185Z,25.20
2019-03-22T14:08:20.481Z,25.50
2019-03-22T14:10:50.566Z,25.70
2019-03-22T14:13:20.809Z,25.50
2019-03-22T14:15:50.991Z,25.60
2019-03-22T14:18:21.472Z,25.90
2019-03-22T14:20:52.028Z,25.80
2019-03-22T14:23:22.435Z,25.80
2019-03-22T14:25:52.572Z,25.80
2019-03-22T14:28:23.388Z,25.80
2019-03-22T14:30:53.748Z,25.40
2019-03-22T14:33:25.310Z,25.30
2019-03-22T14:35:55.455Z,25.60
2019-03-22T14:38:26.115Z,25.70
2019-03-22T14:40:56.698Z,25.60
2019-03-22T14:43:26.950Z,25.70
2019-03-22T14:45:57.606Z,25.60
2019-03-22T14:48:27.975Z,25.50
2019-03-22T14:50:58.486Z,25.30
2019-03-22T14:53:28.709Z,25.40
2019-03-22T14:55:59.630Z,25.30
2019-03-22T14:58:30.021Z,25.70
2019-03-22T15:01:00.281Z,25.70
2019-03-22T15:03:30.341Z,25.70
2019-03-22T15:06:00.964Z,25.50
2019-03-22T15:08:31.157Z,25.50
2019-03-22T15:11:01.403Z,25.60
2019-03-22T15:13:56.962Z,26.30
2019-03-22T15:16:54.998Z,26.30
2019-03-22T15:19:43.108Z,26.40
2019-03-22T15:22:33.531Z,26.70
2019-03-22T15:25:22.576Z,27.10
2019-03-22T15:28:11.005Z,27.00
2019-03-22T15:30:59.375Z,26.80
2019-03-22T15:33:55.322Z,26.60
2019-03-22T15:36:44.650Z,26.30
2019-03-22T15:39:49.303Z,26.40
2019-03-22T15:42:19.662Z,26.20
2019-03-22T15:44:50.289Z,26.60
2019-03-22T15:47:20.904Z,26.50
2019-03-22T15:49:51.055Z,26.30
2019-03-22T15:52:21.569Z,26.80
2019-03-22T15:54:54.001Z,26.20
2019-03-22T15:57:24.200Z,26.30
2019-03-22T15:59:54.430Z,26.40
2019-03-22T16:02:24.819Z,25.90
2019-03-22T16:04:55.266Z,25.80
2019-03-22T16:07:25.496Z,25.60
2019-03-22T16:09:55.767Z,26.10
2019-03-22T16:12:25.948Z,26.00
2019-03-22T16:14:56.230Z,26.70
2019-03-22T16:17:26.548Z,26.50
2019-03-22T16:19:56.935Z,26.60
2019-03-22T16:22:27.337Z,26.70
2019-03-22T16:24:57.675Z,27.00
2019-03-22T16:27:28.080Z,27.60
2019-03-22T16:29:58.281Z,27.90
2019-03-22T16:32:28.447Z,28.00
2019-03-22T16:34:58.877Z,28.20
2019-03-22T16:37:30.714Z,28.40
2019-03-22T16:40:00.908Z,28.40
2019-03-22T16:42:31.100Z,28.90
2019-03-22T16:45:01.273Z,28.80
2019-03-22T16:47:34.417Z,29.00
2019-03-22T16:50:08.927Z,28.70
2019-03-22T16:52:39.106Z,28.80
2019-03-22T16:55:12.031Z,29.00
2019-03-22T16:57:45.257Z,29.10
2019-03-22T17:00:16.133Z,29.10
2019-03-22T17:02:46.555Z,29.30
2019-03-22T17:05:17.179Z,29.20
2019-03-22T17:07:47.722Z,29.40
2019-03-22T17:10:18.148Z,29.50
2019-03-22T17:12:48.404Z,29.50
2019-03-22T17:15:18.898Z,29.50
2019-03-22T17:17:49.178Z,29.30
2019-03-22T17:20:19.733Z,29.60
2019-03-22T17:22:50.365Z,29.70
2019-03-22T17:25:20.939Z,29.70
2019-03-22T17:27:51.133Z,29.80
2019-03-22T17:30:21.734Z,30.00
2019-03-22T17:32:51.959Z,30.30
2019-03-22T17:35:22.518Z,30.50
2019-03-22T17:37:52.878Z,30.80
2019-03-22T17:40:23.379Z,31.10
2019-03-22T17:42:53.857Z,31.40
2019-03-22T17:45:24.498Z,31.90
2019-03-22T17:47:54.904Z,32.20
2019-03-22T17:50:25.214Z,32.30
2019-03-22T17:52:55.760Z,32.70
2019-03-22T17:55:26.090Z,33.00
2019-03-22T17:57:57.118Z,33.00
2019-03-22T18:00:27.627Z,33.40
2019-03-22T18:02:58.051Z,33.70
2019-03-22T18:05:28.586Z,34.50
2019-03-22T18:07:59.231Z,34.70
2019-03-22T18:10:29.554Z,35.10
2019-03-22T18:12:59.926Z,35.60
2019-03-22T18:15:31.035Z,35.80
2019-03-22T18:18:01.441Z,35.80
2019-03-22T18:20:31.976Z,36.40
2019-03-22T18:23:02.479Z,36.60
2019-03-22T18:25:33.324Z,36.90
2019-03-22T18:28:03.863Z,37.50
2019-03-22T18:30:34.440Z,37.70
2019-03-22T18:33:04.895Z,38.30
2019-03-22T18:35:35.364Z,38.90
2019-03-22T18:38:06.034Z,39.20
2019-03-22T18:40:36.627Z,39.90
2019-03-22T18:43:07.270Z,40.30
2019-03-22T18:45:37.984Z,40.60
2019-03-22T18:48:08.470Z,41.10
2019-03-22T18:50:39.141Z,41.60
2019-03-22T18:53:09.641Z,42.20
2019-03-22T18:55:40.275Z,42.80
2019-03-22T18:58:10.762Z,43.40
2019-03-22T19:00:59.724Z,43.70
2019-03-22T19:03:30.269Z,44.40
2019-03-22T19:06:01.555Z,44.80
2019-03-22T19:08:31.994Z,45.60
2019-03-22T19:11:02.489Z,46.00
2019-03-22T19:13:33.001Z,46.80
2019-03-22T19:16:03.693Z,47.60
2019-03-22T19:18:34.896Z,48.30
2019-03-22T19:21:05.379Z,49.80
2019-03-22T19:23:35.949Z,50.80
2019-03-22T19:26:06.451Z,51.70
2019-03-22T19:28:36.928Z,51.40
2019-03-22T19:31:07.545Z,52.50
2019-03-22T19:33:37.990Z,53.10
2019-03-22T19:36:09.175Z,54.30
2019-03-22T19:38:39.651Z,54.10
2019-03-22T19:41:10.320Z,54.20
2019-03-22T19:43:42.090Z,55.30
2019-03-22T19:46:13.063Z,55.70
2019-03-22T19:48:43.431Z,55.70
2019-03-22T19:51:14.056Z,56.30
2019-03-22T19:53:47.094Z,57.00
2019-03-22T19:56:17.776Z,57.90
2019-03-22T19:58:48.294Z,58.70
2019-03-22T20:01:18.799Z,58.80
2019-03-22T20:03:49.342Z,59.30
2019-03-22T20:06:19.836Z,60.40
2019-03-22T20:08:50.645Z,61.60
2019-03-22T20:11:21.157Z,65.10
2019-03-22T20:13:51.606Z,65.50
2019-03-22T20:16:22.096Z,66.80
2019-03-22T20:18:52.686Z,67.10
2019-03-22T20:21:23.154Z,69.60
2019-03-22T20:23:53.975Z,72.60
2019-03-22T20:26:24.434Z,74.00
2019-03-22T20:28:54.918Z,76.40
2019-03-22T20:31:25.480Z,78.40
2019-03-22T20:33:56.016Z,79.30
2019-03-22T20:36:26.392Z,79.10
2019-03-22T20:38:56.819Z,80.60
2019-03-22T20:41:27.475Z,80.90
2019-03-22T20:43:57.913Z,81.90
2019-03-22T20:46:29.795Z,81.50
2019-03-22T20:49:00.690Z,80.00
2019-03-22T20:51:31.098Z,79.20
2019-03-22T20:54:01.480Z,79.60
2019-03-22T20:56:32.234Z,79.00
2019-03-22T20:59:02.704Z,79.00
2019-03-22T21:01:33.319Z,78.90
2019-03-22T21:04:03.844Z,79.60
2019-03-22T21:06:34.354Z,80.10
2019-03-22T21:09:06.553Z,79.00
2019-03-22T21:11:37.052Z,79.00
2019-03-22T21:14:07.487Z,79.20
2019-03-22T21:16:39.478Z,79.70
2019-03-22T21:19:09.933Z,79.60
2019-03-22T21:21:40.334Z,79.40
2019-03-22T21:24:12.705Z,79.90
2019-03-22T21:26:44.332Z,80.00
2019-03-22T21:29:14.586Z,79.70
2019-03-22T21:31:44.942Z,79.40
2019-03-22T21:34:15.550Z,80.10
2019-03-22T21:36:47.428Z,80.10
2019-03-22T21:39:17.903Z,80.20
2019-03-22T21:41:48.298Z,80.10
2019-03-22T21:44:18.632Z,80.70
2019-03-22T21:46:48.876Z,80.90
2019-03-22T21:49:19.228Z,80.60
2019-03-22T21:51:49.500Z,81.20
2019-03-22T21:54:20.062Z,81.40
2019-03-22T21:56:50.234Z,81.40
2019-03-22T21:59:20.491Z,81.20
2019-03-22T22:01:50.572Z,81.70
2019-03-22T22:04:20.631Z,82.50
2019-03-22T22:06:50.907Z,82.60
2019-03-22T22:09:21.170Z,83.20
2019-03-22T22:11:51.189Z,83.20
2019-03-22T22:14:21.231Z,83.70
2019-03-22T22:16:51.384Z,85.20
2019-03-22T22:19:21.509Z,86.90
2019-03-22T22:21:51.657Z,86.70
2019-03-22T22:24:22.071Z,88.30
2019-03-22T22:26:52.357Z,87.40
2019-03-22T22:29:22.497Z,88.60
2019-03-22T22:31:52.541Z,89.10
2019-03-22T22:34:22.656Z,89.30
2019-03-22T22:36:52.935Z,89.10
2019-03-22T22:39:25.697Z,88.20
2019-03-22T22:41:55.751Z,87.20
2019-03-22T22:44:25.865Z,86.80
2019-03-22T22:46:56.052Z,90.00
2019-03-22T22:49:26.207Z,89.00
2019-03-22T22:51:56.307Z,89.50
2019-03-22T22:54:26.654Z,90.40
2019-03-22T22:56:56.707Z,90.60
2019-03-22T22:59:26.881Z,90.30
2019-03-22T23:01:57.098Z,90.10
2019-03-22T23:04:27.210Z,91.10
2019-03-22T23:06:57.572Z,91.50
2019-03-22T23:09:27.632Z,92.40
2019-03-22T23:11:57.737Z,92.40
2019-03-22T23:14:27.779Z,93.10
2019-03-22T23:16:57.789Z,93.90
2019-03-22T23:19:27.927Z,94.60
2019-03-22T23:21:58.039Z,94.50
2019-03-22T23:24:28.127Z,94.70
2019-03-22T23:26:58.681Z,96.00
2019-03-22T23:29:28.843Z,96.00
2019-03-22T23:31:58.932Z,96.10
2019-03-22T23:34:28.982Z,96.90
2019-03-22T23:36:59.067Z,97.70
2019-03-22T23:39:29.278Z,98.00
2019-03-22T23:41:59.383Z,98.30
2019-03-22T23:44:29.410Z,98.40
2019-03-22T23:46:59.514Z,98.60
2019-03-22T23:49:29.557Z,99.30
2019-03-22T23:51:59.604Z,99.40
2019-03-22T23:54:29.662Z,99.70
2019-03-22T23:56:59.727Z,99.90
2019-03-22T23:59:32.740Z,99.90
